sensor_id;sensor_type;location;lat;lon;timestamp;P1;durP1;ratioP1;P2;durP2;ratioP2
53052;SDS011;38934;52.690;6.184;2022-08-21T00:01:56;9.02;;;6.32;;
53052;SDS011;38934;52.690;6.184;2022-08-21T00:04:22;9.93;;;6.68;;
53052;SDS011;38934;52.690;6.184;2022-08-21T00:06:52;8.43;;;6.20;;
53052;SDS011;38934;52.690;6.184;2022-08-21T00:09:18;8.65;;;6.55;;
53052;SDS011;38934;52.690;6.184;2022-08-21T00:11:45;8.57;;;6.80;;
53052;SDS011;38934;52.690;6.184;2022-08-21T00:14:12;9.52;;;6.13;;
53052;SDS011;38934;52.690;6.184;2022-08-21T00:16:38;9.80;;;7.20;;
53052;SDS011;38934;52.690;6.184;2022-08-21T00:19:05;10.40;;;6.40;;
53052;SDS011;38934;52.690;6.184;2022-08-21T00:21:32;8.90;;;6.63;;
53052;SDS011;38934;52.690;6.184;2022-08-21T00:23:59;8.18;;;6.10;;
53052;SDS011;38934;52.690;6.184;2022-08-21T00:26:24;10.90;;;6.68;;
53052;SDS011;38934;52.690;6.184;2022-08-21T00:28:51;7.93;;;6.35;;
53052;SDS011;38934;52.690;6.184;2022-08-21T00:31:17;13.20;;;7.30;;
53052;SDS011;38934;52.690;6.184;2022-08-21T00:33:43;8.02;;;5.93;;
53052;SDS011;38934;52.690;6.184;2022-08-21T00:36:09;9.60;;;6.47;;
53052;SDS011;38934;52.690;6.184;2022-08-21T00:38:35;8.70;;;5.88;;
53052;SDS011;38934;52.690;6.184;2022-08-21T00:41:02;8.52;;;6.20;;
53052;SDS011;38934;52.690;6.184;2022-08-21T00:43:30;8.48;;;6.30;;
53052;SDS011;38934;52.690;6.184;2022-08-21T00:45:58;8.23;;;5.38;;
53052;SDS011;38934;52.690;6.184;2022-08-21T00:48:25;8.35;;;6.63;;
53052;SDS011;38934;52.690;6.184;2022-08-21T00:50:55;7.97;;;5.90;;
53052;SDS011;38934;52.690;6.184;2022-08-21T00:53:24;9.60;;;5.65;;
53052;SDS011;38934;52.690;6.184;2022-08-21T00:55:51;8.50;;;5.90;;
53052;SDS011;38934;52.690;6.184;2022-08-21T00:58:18;8.40;;;6.32;;
53052;SDS011;38934;52.690;6.184;2022-08-21T01:00:45;9.20;;;5.82;;
53052;SDS011;38934;52.690;6.184;2022-08-21T01:03:14;10.57;;;6.82;;
53052;SDS011;38934;52.690;6.184;2022-08-21T01:05:42;8.73;;;5.90;;
53052;SDS011;38934;52.690;6.184;2022-08-21T01:08:10;12.25;;;6.57;;
53052;SDS011;38934;52.690;6.184;2022-08-21T01:10:37;9.02;;;6.75;;
53052;SDS011;38934;52.690;6.184;2022-08-21T01:13:03;7.40;;;5.40;;
53052;SDS011;38934;52.690;6.184;2022-08-21T01:15:34;7.45;;;6.00;;
53052;SDS011;38934;52.690;6.184;2022-08-21T01:18:03;9.27;;;5.97;;
53052;SDS011;38934;52.690;6.184;2022-08-21T01:20:30;10.65;;;7.03;;
53052;SDS011;38934;52.690;6.184;2022-08-21T01:22:56;7.95;;;5.63;;
53052;SDS011;38934;52.690;6.184;2022-08-21T01:25:22;6.90;;;6.03;;
53052;SDS011;38934;52.690;6.184;2022-08-21T01:27:48;10.70;;;6.50;;
53052;SDS011;38934;52.690;6.184;2022-08-21T01:30:16;8.35;;;6.13;;
53052;SDS011;38934;52.690;6.184;2022-08-21T01:32:44;9.02;;;6.15;;
53052;SDS011;38934;52.690;6.184;2022-08-21T01:35:11;8.98;;;6.05;;
53052;SDS011;38934;52.690;6.184;2022-08-21T01:37:38;9.02;;;6.03;;
53052;SDS011;38934;52.690;6.184;2022-08-21T01:40:05;8.25;;;5.85;;
53052;SDS011;38934;52.690;6.184;2022-08-21T01:42:32;6.70;;;5.85;;
53052;SDS011;38934;52.690;6.184;2022-08-21T01:44:58;7.80;;;5.72;;
53052;SDS011;38934;52.690;6.184;2022-08-21T01:47:24;7.82;;;5.40;;
53052;SDS011;38934;52.690;6.184;2022-08-21T01:49:50;8.63;;;5.75;;
53052;SDS011;38934;52.690;6.184;2022-08-21T01:52:15;9.27;;;6.00;;
53052;SDS011;38934;52.690;6.184;2022-08-21T01:54:41;6.53;;;5.40;;
53052;SDS011;38934;52.690;6.184;2022-08-21T01:57:07;8.32;;;5.97;;
53052;SDS011;38934;52.690;6.184;2022-08-21T01:59:34;7.15;;;6.15;;
53052;SDS011;38934;52.690;6.184;2022-08-21T02:02:00;8.65;;;5.85;;
53052;SDS011;38934;52.690;6.184;2022-08-21T02:04:25;8.90;;;6.30;;
53052;SDS011;38934;52.690;6.184;2022-08-21T02:06:51;8.82;;;6.45;;
53052;SDS011;38934;52.690;6.184;2022-08-21T02:09:17;8.50;;;6.40;;
53052;SDS011;38934;52.690;6.184;2022-08-21T02:11:43;7.38;;;6.05;;
53052;SDS011;38934;52.690;6.184;2022-08-21T02:14:10;7.80;;;6.25;;
53052;SDS011;38934;52.690;6.184;2022-08-21T02:16:38;9.68;;;7.25;;
53052;SDS011;38934;52.690;6.184;2022-08-21T02:19:04;9.05;;;7.00;;
53052;SDS011;38934;52.690;6.184;2022-08-21T02:21:30;8.00;;;7.07;;
53052;SDS011;38934;52.690;6.184;2022-08-21T02:23:56;8.63;;;6.53;;
53052;SDS011;38934;52.690;6.184;2022-08-21T02:26:21;8.60;;;6.55;;
53052;SDS011;38934;52.690;6.184;2022-08-21T02:28:47;8.07;;;6.47;;
53052;SDS011;38934;52.690;6.184;2022-08-21T02:31:13;9.93;;;6.32;;
53052;SDS011;38934;52.690;6.184;2022-08-21T02:33:39;10.32;;;7.20;;
53052;SDS011;38934;52.690;6.184;2022-08-21T02:36:05;7.07;;;6.15;;
53052;SDS011;38934;52.690;6.184;2022-08-21T02:38:33;7.90;;;7.05;;
53052;SDS011;38934;52.690;6.184;2022-08-21T02:41:03;8.73;;;7.05;;
53052;SDS011;38934;52.690;6.184;2022-08-21T02:43:32;8.70;;;6.15;;
53052;SDS011;38934;52.690;6.184;2022-08-21T02:45:58;9.57;;;6.88;;
53052;SDS011;38934;52.690;6.184;2022-08-21T02:48:25;9.63;;;6.57;;
53052;SDS011;38934;52.690;6.184;2022-08-21T02:50:56;8.77;;;6.82;;
53052;SDS011;38934;52.690;6.184;2022-08-21T02:53:24;11.10;;;7.82;;
53052;SDS011;38934;52.690;6.184;2022-08-21T02:55:51;8.32;;;6.78;;
53052;SDS011;38934;52.690;6.184;2022-08-21T02:58:19;8.63;;;6.35;;
53052;SDS011;38934;52.690;6.184;2022-08-21T03:00:47;8.82;;;6.78;;
53052;SDS011;38934;52.690;6.184;2022-08-21T03:03:13;7.90;;;6.70;;
53052;SDS011;38934;52.690;6.184;2022-08-21T03:05:39;9.77;;;6.80;;
53052;SDS011;38934;52.690;6.184;2022-08-21T03:08:06;8.55;;;7.47;;
53052;SDS011;38934;52.690;6.184;2022-08-21T03:10:34;8.68;;;6.40;;
53052;SDS011;38934;52.690;6.184;2022-08-21T03:13:01;8.23;;;6.82;;
53052;SDS011;38934;52.690;6.184;2022-08-21T03:15:28;7.65;;;6.50;;
53052;SDS011;38934;52.690;6.184;2022-08-21T03:17:54;8.40;;;6.80;;
53052;SDS011;38934;52.690;6.184;2022-08-21T03:20:22;8.07;;;6.95;;
53052;SDS011;38934;52.690;6.184;2022-08-21T03:22:49;8.50;;;6.95;;
53052;SDS011;38934;52.690;6.184;2022-08-21T03:25:16;7.57;;;6.78;;
53052;SDS011;38934;52.690;6.184;2022-08-21T03:27:43;7.45;;;6.55;;
53052;SDS011;38934;52.690;6.184;2022-08-21T03:30:09;7.20;;;6.32;;
53052;SDS011;38934;52.690;6.184;2022-08-21T03:32:35;9.15;;;7.07;;
53052;SDS011;38934;52.690;6.184;2022-08-21T03:35:01;6.80;;;6.10;;
53052;SDS011;38934;52.690;6.184;2022-08-21T03:37:27;8.77;;;6.85;;
53052;SDS011;38934;52.690;6.184;2022-08-21T03:39:53;7.20;;;5.90;;
53052;SDS011;38934;52.690;6.184;2022-08-21T03:42:19;9.40;;;6.78;;
53052;SDS011;38934;52.690;6.184;2022-08-21T03:44:45;10.10;;;7.50;;
53052;SDS011;38934;52.690;6.184;2022-08-21T03:47:11;8.93;;;6.95;;
53052;SDS011;38934;52.690;6.184;2022-08-21T03:49:37;7.95;;;6.85;;
53052;SDS011;38934;52.690;6.184;2022-08-21T03:52:03;7.65;;;6.13;;
53052;SDS011;38934;52.690;6.184;2022-08-21T03:54:29;8.82;;;6.95;;
53052;SDS011;38934;52.690;6.184;2022-08-21T03:56:54;8.38;;;6.30;;
53052;SDS011;38934;52.690;6.184;2022-08-21T03:59:21;9.43;;;6.90;;
53052;SDS011;38934;52.690;6.184;2022-08-21T04:01:54;10.43;;;6.43;;
53052;SDS011;38934;52.690;6.184;2022-08-21T04:04:22;10.07;;;6.05;;
53052;SDS011;38934;52.690;6.184;2022-08-21T04:06:47;9.13;;;6.30;;
53052;SDS011;38934;52.690;6.184;2022-08-21T04:09:14;8.23;;;6.30;;
53052;SDS011;38934;52.690;6.184;2022-08-21T04:11:40;11.05;;;6.50;;
53052;SDS011;38934;52.690;6.184;2022-08-21T04:14:06;10.88;;;6.93;;
53052;SDS011;38934;52.690;6.184;2022-08-21T04:16:32;8.45;;;6.65;;
53052;SDS011;38934;52.690;6.184;2022-08-21T04:18:57;8.27;;;6.10;;
53052;SDS011;38934;52.690;6.184;2022-08-21T04:21:23;9.32;;;6.68;;
53052;SDS011;38934;52.690;6.184;2022-08-21T04:23:49;12.65;;;6.25;;
53052;SDS011;38934;52.690;6.184;2022-08-21T04:26:15;7.78;;;5.97;;
53052;SDS011;38934;52.690;6.184;2022-08-21T04:28:40;7.82;;;5.95;;
53052;SDS011;38934;52.690;6.184;2022-08-21T04:31:07;7.90;;;5.80;;
53052;SDS011;38934;52.690;6.184;2022-08-21T04:33:33;10.93;;;6.60;;
53052;SDS011;38934;52.690;6.184;2022-08-21T04:35:59;8.18;;;6.00;;
53052;SDS011;38934;52.690;6.184;2022-08-21T04:38:25;8.40;;;5.63;;
53052;SDS011;38934;52.690;6.184;2022-08-21T04:40:51;8.77;;;5.85;;
53052;SDS011;38934;52.690;6.184;2022-08-21T04:43:17;7.93;;;5.88;;
53052;SDS011;38934;52.690;6.184;2022-08-21T04:45:45;6.35;;;5.25;;
53052;SDS011;38934;52.690;6.184;2022-08-21T04:48:13;9.65;;;5.18;;
53052;SDS011;38934;52.690;6.184;2022-08-21T04:53:24;7.78;;;5.25;;
53052;SDS011;38934;52.690;6.184;2022-08-21T04:56:26;8.77;;;5.55;;
53052;SDS011;38934;52.690;6.184;2022-08-21T04:58:57;8.52;;;5.65;;
53052;SDS011;38934;52.690;6.184;2022-08-21T05:01:27;7.85;;;5.10;;
53052;SDS011;38934;52.690;6.184;2022-08-21T05:03:56;8.68;;;5.32;;
53052;SDS011;38934;52.690;6.184;2022-08-21T05:06:24;6.25;;;4.80;;
53052;SDS011;38934;52.690;6.184;2022-08-21T05:08:51;6.15;;;4.60;;
53052;SDS011;38934;52.690;6.184;2022-08-21T05:11:19;8.85;;;5.10;;
53052;SDS011;38934;52.690;6.184;2022-08-21T05:13:45;9.68;;;5.28;;
53052;SDS011;38934;52.690;6.184;2022-08-21T05:16:11;8.70;;;5.22;;
53052;SDS011;38934;52.690;6.184;2022-08-21T05:18:37;8.20;;;5.38;;
53052;SDS011;38934;52.690;6.184;2022-08-21T05:21:03;6.35;;;4.82;;
53052;SDS011;38934;52.690;6.184;2022-08-21T05:23:29;5.75;;;4.80;;
53052;SDS011;38934;52.690;6.184;2022-08-21T05:25:55;8.18;;;5.40;;
53052;SDS011;38934;52.690;6.184;2022-08-21T05:28:21;8.77;;;5.20;;
53052;SDS011;38934;52.690;6.184;2022-08-21T05:30:47;10.13;;;4.93;;
53052;SDS011;38934;52.690;6.184;2022-08-21T05:33:12;8.35;;;5.47;;
53052;SDS011;38934;52.690;6.184;2022-08-21T05:35:38;7.50;;;5.40;;
53052;SDS011;38934;52.690;6.184;2022-08-21T05:38:04;7.53;;;4.80;;
53052;SDS011;38934;52.690;6.184;2022-08-21T05:40:31;8.75;;;5.18;;
53052;SDS011;38934;52.690;6.184;2022-08-21T05:42:57;7.88;;;4.97;;
53052;SDS011;38934;52.690;6.184;2022-08-21T05:45:24;7.85;;;5.20;;
53052;SDS011;38934;52.690;6.184;2022-08-21T05:47:55;7.40;;;5.25;;
53052;SDS011;38934;52.690;6.184;2022-08-21T05:50:21;7.05;;;5.30;;
53052;SDS011;38934;52.690;6.184;2022-08-21T05:52:47;8.80;;;5.72;;
53052;SDS011;38934;52.690;6.184;2022-08-21T05:55:12;8.95;;;5.70;;
53052;SDS011;38934;52.690;6.184;2022-08-21T05:57:38;8.27;;;5.53;;
53052;SDS011;38934;52.690;6.184;2022-08-21T06:00:06;8.60;;;5.93;;
53052;SDS011;38934;52.690;6.184;2022-08-21T06:02:33;8.60;;;5.78;;
53052;SDS011;38934;52.690;6.184;2022-08-21T06:04:59;11.05;;;5.97;;
53052;SDS011;38934;52.690;6.184;2022-08-21T06:07:25;8.48;;;5.97;;
53052;SDS011;38934;52.690;6.184;2022-08-21T06:09:50;9.38;;;5.53;;
53052;SDS011;38934;52.690;6.184;2022-08-21T06:12:16;9.65;;;5.93;;
53052;SDS011;38934;52.690;6.184;2022-08-21T06:14:42;8.85;;;5.20;;
53052;SDS011;38934;52.690;6.184;2022-08-21T06:17:09;10.02;;;5.82;;
53052;SDS011;38934;52.690;6.184;2022-08-21T06:19:36;9.65;;;5.55;;
53052;SDS011;38934;52.690;6.184;2022-08-21T06:22:02;9.40;;;5.53;;
53052;SDS011;38934;52.690;6.184;2022-08-21T06:24:29;8.75;;;5.35;;
53052;SDS011;38934;52.690;6.184;2022-08-21T06:26:55;7.78;;;4.72;;
53052;SDS011;38934;52.690;6.184;2022-08-21T06:29:21;10.52;;;6.13;;
53052;SDS011;38934;52.690;6.184;2022-08-21T06:31:48;11.95;;;5.80;;
53052;SDS011;38934;52.690;6.184;2022-08-21T06:34:15;9.45;;;5.75;;
53052;SDS011;38934;52.690;6.184;2022-08-21T06:36:41;8.23;;;5.22;;
53052;SDS011;38934;52.690;6.184;2022-08-21T06:39:07;8.30;;;5.40;;
53052;SDS011;38934;52.690;6.184;2022-08-21T06:41:33;10.77;;;5.45;;
53052;SDS011;38934;52.690;6.184;2022-08-21T06:43:59;11.80;;;5.97;;
53052;SDS011;38934;52.690;6.184;2022-08-21T06:46:25;12.10;;;5.88;;
53052;SDS011;38934;52.690;6.184;2022-08-21T06:48:53;8.40;;;5.32;;
53052;SDS011;38934;52.690;6.184;2022-08-21T06:51:19;11.40;;;4.72;;
53052;SDS011;38934;52.690;6.184;2022-08-21T06:53:44;8.95;;;4.75;;
53052;SDS011;38934;52.690;6.184;2022-08-21T06:56:10;8.48;;;5.13;;
53052;SDS011;38934;52.690;6.184;2022-08-21T06:58:36;12.32;;;5.45;;
53052;SDS011;38934;52.690;6.184;2022-08-21T07:01:02;9.25;;;4.90;;
53052;SDS011;38934;52.690;6.184;2022-08-21T07:03:29;9.70;;;5.13;;
53052;SDS011;38934;52.690;6.184;2022-08-21T07:05:57;11.90;;;4.93;;
53052;SDS011;38934;52.690;6.184;2022-08-21T07:08:23;12.65;;;4.90;;
53052;SDS011;38934;52.690;6.184;2022-08-21T07:10:50;10.90;;;4.75;;
53052;SDS011;38934;52.690;6.184;2022-08-21T07:13:16;7.45;;;4.68;;
53052;SDS011;38934;52.690;6.184;2022-08-21T07:15:42;9.25;;;5.10;;
53052;SDS011;38934;52.690;6.184;2022-08-21T07:18:09;9.00;;;4.85;;
53052;SDS011;38934;52.690;6.184;2022-08-21T07:20:35;6.60;;;4.78;;
53052;SDS011;38934;52.690;6.184;2022-08-21T07:23:02;7.95;;;4.20;;
53052;SDS011;38934;52.690;6.184;2022-08-21T07:25:31;9.68;;;4.25;;
53052;SDS011;38934;52.690;6.184;2022-08-21T07:27:57;7.63;;;4.40;;
53052;SDS011;38934;52.690;6.184;2022-08-21T07:30:22;8.43;;;4.13;;
53052;SDS011;38934;52.690;6.184;2022-08-21T07:32:48;8.05;;;4.65;;
53052;SDS011;38934;52.690;6.184;2022-08-21T07:35:15;8.82;;;4.03;;
53052;SDS011;38934;52.690;6.184;2022-08-21T07:37:41;11.70;;;3.80;;
53052;SDS011;38934;52.690;6.184;2022-08-21T07:40:07;7.60;;;3.30;;
53052;SDS011;38934;52.690;6.184;2022-08-21T07:42:33;6.82;;;2.70;;
53052;SDS011;38934;52.690;6.184;2022-08-21T07:44:59;7.82;;;2.67;;
53052;SDS011;38934;52.690;6.184;2022-08-21T07:47:24;7.15;;;2.33;;
53052;SDS011;38934;52.690;6.184;2022-08-21T07:49:50;7.43;;;2.97;;
53052;SDS011;38934;52.690;6.184;2022-08-21T07:52:16;5.43;;;2.00;;
53052;SDS011;38934;52.690;6.184;2022-08-21T07:54:41;8.68;;;2.20;;
53052;SDS011;38934;52.690;6.184;2022-08-21T07:57:07;3.58;;;1.88;;
53052;SDS011;38934;52.690;6.184;2022-08-21T07:59:33;4.93;;;1.90;;
53052;SDS011;38934;52.690;6.184;2022-08-21T08:01:58;4.90;;;1.70;;
53052;SDS011;38934;52.690;6.184;2022-08-21T08:04:24;4.00;;;1.80;;
53052;SDS011;38934;52.690;6.184;2022-08-21T08:06:49;5.63;;;1.98;;
53052;SDS011;38934;52.690;6.184;2022-08-21T08:09:15;3.40;;;1.95;;
53052;SDS011;38934;52.690;6.184;2022-08-21T08:11:42;6.25;;;2.10;;
53052;SDS011;38934;52.690;6.184;2022-08-21T08:14:11;6.00;;;2.42;;
53052;SDS011;38934;52.690;6.184;2022-08-21T08:16:36;5.47;;;2.20;;
53052;SDS011;38934;52.690;6.184;2022-08-21T08:19:02;6.68;;;2.75;;
53052;SDS011;38934;52.690;6.184;2022-08-21T08:21:28;4.63;;;2.25;;
53052;SDS011;38934;52.690;6.184;2022-08-21T08:23:54;3.90;;;2.25;;
53052;SDS011;38934;52.690;6.184;2022-08-21T08:26:19;8.07;;;2.53;;
53052;SDS011;38934;52.690;6.184;2022-08-21T08:28:45;6.55;;;2.30;;
53052;SDS011;38934;52.690;6.184;2022-08-21T08:31:12;9.20;;;2.38;;
53052;SDS011;38934;52.690;6.184;2022-08-21T08:33:38;5.65;;;1.98;;
53052;SDS011;38934;52.690;6.184;2022-08-21T08:36:04;6.28;;;2.42;;
53052;SDS011;38934;52.690;6.184;2022-08-21T08:38:30;6.38;;;2.20;;
53052;SDS011;38934;52.690;6.184;2022-08-21T08:41:12;8.63;;;2.72;;
53052;SDS011;38934;52.690;6.184;2022-08-21T08:43:47;10.25;;;2.50;;
53052;SDS011;38934;52.690;6.184;2022-08-21T08:46:17;6.90;;;2.35;;
53052;SDS011;38934;52.690;6.184;2022-08-21T08:48:58;5.07;;;2.50;;
53052;SDS011;38934;52.690;6.184;2022-08-21T08:54:02;6.80;;;2.55;;
53052;SDS011;38934;52.690;6.184;2022-08-21T08:56:32;8.10;;;2.83;;
53052;SDS011;38934;52.690;6.184;2022-08-21T08:59:00;6.28;;;2.42;;
53052;SDS011;38934;52.690;6.184;2022-08-21T09:01:32;4.30;;;2.30;;
53052;SDS011;38934;52.690;6.184;2022-08-21T09:03:58;5.13;;;2.70;;
53052;SDS011;38934;52.690;6.184;2022-08-21T09:08:50;9.85;;;2.72;;
53052;SDS011;38934;52.690;6.184;2022-08-21T09:14:13;8.35;;;2.78;;
53052;SDS011;38934;52.690;6.184;2022-08-21T09:17:16;7.13;;;2.72;;
53052;SDS011;38934;52.690;6.184;2022-08-21T09:20:08;6.22;;;2.65;;
53052;SDS011;38934;52.690;6.184;2022-08-21T09:25:46;8.63;;;2.63;;
53052;SDS011;38934;52.690;6.184;2022-08-21T09:28:36;6.55;;;2.08;;
53052;SDS011;38934;52.690;6.184;2022-08-21T09:31:06;4.78;;;2.00;;
53052;SDS011;38934;52.690;6.184;2022-08-21T09:33:33;5.40;;;2.33;;
53052;SDS011;38934;52.690;6.184;2022-08-21T09:35:59;8.15;;;2.70;;
53052;SDS011;38934;52.690;6.184;2022-08-21T09:38:27;6.90;;;2.60;;
53052;SDS011;38934;52.690;6.184;2022-08-21T09:40:59;6.38;;;2.35;;
53052;SDS011;38934;52.690;6.184;2022-08-21T09:43:32;8.25;;;2.80;;
53052;SDS011;38934;52.690;6.184;2022-08-21T09:46:06;5.57;;;1.85;;
53052;SDS011;38934;52.690;6.184;2022-08-21T09:48:39;4.82;;;1.77;;
53052;SDS011;38934;52.690;6.184;2022-08-21T09:51:14;7.55;;;1.90;;
53052;SDS011;38934;52.690;6.184;2022-08-21T09:53:44;6.20;;;1.70;;
53052;SDS011;38934;52.690;6.184;2022-08-21T09:56:18;6.45;;;1.70;;
53052;SDS011;38934;52.690;6.184;2022-08-21T09:59:12;11.33;;;2.03;;
53052;SDS011;38934;52.690;6.184;2022-08-21T10:01:45;6.35;;;2.05;;
53052;SDS011;38934;52.690;6.184;2022-08-21T10:04:13;5.07;;;1.80;;
53052;SDS011;38934;52.690;6.184;2022-08-21T10:06:38;9.13;;;2.38;;
53052;SDS011;38934;52.690;6.184;2022-08-21T10:09:09;6.72;;;2.00;;
53052;SDS011;38934;52.690;6.184;2022-08-21T10:11:42;5.65;;;2.10;;
53052;SDS011;38934;52.690;6.184;2022-08-21T10:17:00;5.07;;;2.08;;
53052;SDS011;38934;52.690;6.184;2022-08-21T10:19:53;5.35;;;1.90;;
53052;SDS011;38934;52.690;6.184;2022-08-21T10:22:25;6.05;;;2.15;;
53052;SDS011;38934;52.690;6.184;2022-08-21T10:25:05;7.15;;;2.63;;
53052;SDS011;38934;52.690;6.184;2022-08-21T10:28:17;5.47;;;2.03;;
53052;SDS011;38934;52.690;6.184;2022-08-21T10:33:41;3.60;;;1.73;;
53052;SDS011;38934;52.690;6.184;2022-08-21T10:36:33;6.68;;;1.70;;
53052;SDS011;38934;52.690;6.184;2022-08-21T10:39:21;5.05;;;2.00;;
53052;SDS011;38934;52.690;6.184;2022-08-21T10:42:21;6.20;;;2.03;;
53052;SDS011;38934;52.690;6.184;2022-08-21T10:45:08;3.10;;;1.50;;
53052;SDS011;38934;52.690;6.184;2022-08-21T10:47:45;6.10;;;1.73;;
53052;SDS011;38934;52.690;6.184;2022-08-21T10:50:19;5.80;;;1.80;;
53052;SDS011;38934;52.690;6.184;2022-08-21T10:52:54;6.78;;;1.90;;
53052;SDS011;38934;52.690;6.184;2022-08-21T10:55:40;5.00;;;1.88;;
53052;SDS011;38934;52.690;6.184;2022-08-21T10:58:11;6.28;;;2.10;;
53052;SDS011;38934;52.690;6.184;2022-08-21T11:00:47;4.07;;;1.80;;
53052;SDS011;38934;52.690;6.184;2022-08-21T11:06:08;6.05;;;2.13;;
53052;SDS011;38934;52.690;6.184;2022-08-21T11:08:39;4.70;;;2.00;;
53052;SDS011;38934;52.690;6.184;2022-08-21T11:11:12;5.07;;;1.73;;
53052;SDS011;38934;52.690;6.184;2022-08-21T11:13:47;7.70;;;2.38;;
53052;SDS011;38934;52.690;6.184;2022-08-21T11:19:12;5.90;;;2.35;;
53052;SDS011;38934;52.690;6.184;2022-08-21T11:21:48;5.28;;;2.08;;
53052;SDS011;38934;52.690;6.184;2022-08-21T11:27:13;8.00;;;2.10;;
53052;SDS011;38934;52.690;6.184;2022-08-21T11:29:36;4.38;;;1.88;;
53052;SDS011;38934;52.690;6.184;2022-08-21T11:32:11;3.35;;;1.55;;
53052;SDS011;38934;52.690;6.184;2022-08-21T11:41:08;4.60;;;1.70;;
53052;SDS011;38934;52.690;6.184;2022-08-21T11:44:11;4.22;;;1.40;;
53052;SDS011;38934;52.690;6.184;2022-08-21T11:49:33;6.68;;;1.92;;
53052;SDS011;38934;52.690;6.184;2022-08-21T11:54:56;7.95;;;1.90;;
53052;SDS011;38934;52.690;6.184;2022-08-21T12:00:45;4.78;;;1.90;;
53052;SDS011;38934;52.690;6.184;2022-08-21T12:02:56;4.88;;;1.92;;
53052;SDS011;38934;52.690;6.184;2022-08-21T12:05:32;5.97;;;1.98;;
53052;SDS011;38934;52.690;6.184;2022-08-21T12:08:12;5.45;;;1.63;;
53052;SDS011;38934;52.690;6.184;2022-08-21T12:10:42;4.25;;;1.50;;
53052;SDS011;38934;52.690;6.184;2022-08-21T12:13:24;4.00;;;1.70;;
53052;SDS011;38934;52.690;6.184;2022-08-21T12:15:52;5.13;;;1.63;;
53052;SDS011;38934;52.690;6.184;2022-08-21T12:18:30;6.05;;;1.80;;
53052;SDS011;38934;52.690;6.184;2022-08-21T12:21:46;4.50;;;1.60;;
53052;SDS011;38934;52.690;6.184;2022-08-21T12:23:47;4.05;;;1.67;;
53052;SDS011;38934;52.690;6.184;2022-08-21T12:26:34;4.78;;;1.50;;
53052;SDS011;38934;52.690;6.184;2022-08-21T12:31:59;4.85;;;1.92;;
53052;SDS011;38934;52.690;6.184;2022-08-21T12:34:51;6.97;;;2.30;;
53052;SDS011;38934;52.690;6.184;2022-08-21T12:37:34;4.20;;;1.60;;
53052;SDS011;38934;52.690;6.184;2022-08-21T12:40:03;5.43;;;1.67;;
53052;SDS011;38934;52.690;6.184;2022-08-21T12:42:37;6.82;;;1.95;;
53052;SDS011;38934;52.690;6.184;2022-08-21T12:45:29;6.40;;;1.60;;
53052;SDS011;38934;52.690;6.184;2022-08-21T12:50:44;5.10;;;1.80;;
53052;SDS011;38934;52.690;6.184;2022-08-21T12:53:29;4.45;;;1.80;;
53052;SDS011;38934;52.690;6.184;2022-08-21T12:56:01;5.43;;;1.70;;
53052;SDS011;38934;52.690;6.184;2022-08-21T12:58:28;4.50;;;1.63;;
53052;SDS011;38934;52.690;6.184;2022-08-21T13:01:20;5.30;;;1.75;;
53052;SDS011;38934;52.690;6.184;2022-08-21T13:03:46;7.20;;;2.17;;
53052;SDS011;38934;52.690;6.184;2022-08-21T13:06:14;4.82;;;1.73;;
53052;SDS011;38934;52.690;6.184;2022-08-21T13:08:42;5.03;;;1.65;;
53052;SDS011;38934;52.690;6.184;2022-08-21T13:11:09;5.35;;;1.50;;
53052;SDS011;38934;52.690;6.184;2022-08-21T13:13:37;3.03;;;1.40;;
53052;SDS011;38934;52.690;6.184;2022-08-21T13:16:05;3.92;;;1.50;;
53052;SDS011;38934;52.690;6.184;2022-08-21T13:18:33;4.68;;;1.65;;
53052;SDS011;38934;52.690;6.184;2022-08-21T13:21:34;5.50;;;1.60;;
53052;SDS011;38934;52.690;6.184;2022-08-21T13:24:06;3.58;;;1.48;;
53052;SDS011;38934;52.690;6.184;2022-08-21T13:26:38;5.00;;;1.60;;
53052;SDS011;38934;52.690;6.184;2022-08-21T13:29:11;4.45;;;2.03;;
53052;SDS011;38934;52.690;6.184;2022-08-21T13:31:40;5.18;;;1.70;;
53052;SDS011;38934;52.690;6.184;2022-08-21T13:34:11;4.23;;;1.80;;
53052;SDS011;38934;52.690;6.184;2022-08-21T13:36:39;3.83;;;1.45;;
53052;SDS011;38934;52.690;6.184;2022-08-21T13:39:08;4.40;;;1.70;;
53052;SDS011;38934;52.690;6.184;2022-08-21T13:41:37;3.15;;;1.40;;
53052;SDS011;38934;52.690;6.184;2022-08-21T13:44:13;5.53;;;2.03;;
53052;SDS011;38934;52.690;6.184;2022-08-21T13:46:39;4.18;;;1.60;;
53052;SDS011;38934;52.690;6.184;2022-08-21T13:49:05;4.15;;;1.65;;
53052;SDS011;38934;52.690;6.184;2022-08-21T13:51:33;3.58;;;1.60;;
53052;SDS011;38934;52.690;6.184;2022-08-21T13:53:59;3.53;;;1.50;;
53052;SDS011;38934;52.690;6.184;2022-08-21T13:56:29;4.53;;;1.55;;
53052;SDS011;38934;52.690;6.184;2022-08-21T14:01:28;3.50;;;1.70;;
53052;SDS011;38934;52.690;6.184;2022-08-21T14:04:02;2.53;;;1.50;;
53052;SDS011;38934;52.690;6.184;2022-08-21T14:06:44;3.05;;;1.60;;
53052;SDS011;38934;52.690;6.184;2022-08-21T14:09:11;4.40;;;1.92;;
53052;SDS011;38934;52.690;6.184;2022-08-21T14:11:40;3.17;;;1.40;;
53052;SDS011;38934;52.690;6.184;2022-08-21T14:14:13;4.72;;;1.50;;
53052;SDS011;38934;52.690;6.184;2022-08-21T14:17:04;5.80;;;1.63;;
53052;SDS011;38934;52.690;6.184;2022-08-21T14:19:39;4.38;;;1.70;;
53052;SDS011;38934;52.690;6.184;2022-08-21T14:25:14;4.72;;;1.85;;
53052;SDS011;38934;52.690;6.184;2022-08-21T14:27:50;5.20;;;1.92;;
53052;SDS011;38934;52.690;6.184;2022-08-21T14:30:37;3.58;;;1.50;;
53052;SDS011;38934;52.690;6.184;2022-08-21T14:33:07;5.72;;;1.85;;
53052;SDS011;38934;52.690;6.184;2022-08-21T14:35:35;2.90;;;1.40;;
53052;SDS011;38934;52.690;6.184;2022-08-21T14:38:00;5.53;;;1.70;;
53052;SDS011;38934;52.690;6.184;2022-08-21T14:40:26;7.22;;;1.98;;
53052;SDS011;38934;52.690;6.184;2022-08-21T14:42:52;3.72;;;1.90;;
53052;SDS011;38934;52.690;6.184;2022-08-21T14:47:56;4.22;;;1.58;;
53052;SDS011;38934;52.690;6.184;2022-08-21T14:50:23;6.07;;;1.60;;
53052;SDS011;38934;52.690;6.184;2022-08-21T14:52:49;7.38;;;1.60;;
53052;SDS011;38934;52.690;6.184;2022-08-21T14:55:16;3.97;;;1.30;;
53052;SDS011;38934;52.690;6.184;2022-08-21T14:57:44;4.20;;;1.55;;
53052;SDS011;38934;52.690;6.184;2022-08-21T15:00:13;7.07;;;1.77;;
53052;SDS011;38934;52.690;6.184;2022-08-21T15:02:41;7.32;;;1.77;;
53052;SDS011;38934;52.690;6.184;2022-08-21T15:05:08;6.93;;;1.92;;
53052;SDS011;38934;52.690;6.184;2022-08-21T15:07:34;4.60;;;1.90;;
53052;SDS011;38934;52.690;6.184;2022-08-21T15:10:00;4.57;;;1.52;;
53052;SDS011;38934;52.690;6.184;2022-08-21T15:12:27;3.28;;;1.40;;
53052;SDS011;38934;52.690;6.184;2022-08-21T15:14:53;3.40;;;1.52;;
53052;SDS011;38934;52.690;6.184;2022-08-21T15:17:19;4.75;;;1.70;;
53052;SDS011;38934;52.690;6.184;2022-08-21T15:19:45;4.80;;;1.50;;
53052;SDS011;38934;52.690;6.184;2022-08-21T15:22:10;6.03;;;1.70;;
53052;SDS011;38934;52.690;6.184;2022-08-21T15:24:36;3.55;;;1.45;;
53052;SDS011;38934;52.690;6.184;2022-08-21T15:27:02;3.75;;;1.80;;
53052;SDS011;38934;52.690;6.184;2022-08-21T15:29:29;3.05;;;1.45;;
53052;SDS011;38934;52.690;6.184;2022-08-21T15:31:57;3.67;;;1.50;;
53052;SDS011;38934;52.690;6.184;2022-08-21T15:34:26;3.75;;;1.60;;
53052;SDS011;38934;52.690;6.184;2022-08-21T15:36:54;4.55;;;1.35;;
53052;SDS011;38934;52.690;6.184;2022-08-21T15:39:20;5.75;;;1.63;;
53052;SDS011;38934;52.690;6.184;2022-08-21T15:41:46;4.38;;;1.50;;
53052;SDS011;38934;52.690;6.184;2022-08-21T15:44:12;4.07;;;1.63;;
53052;SDS011;38934;52.690;6.184;2022-08-21T15:46:39;3.72;;;1.23;;
53052;SDS011;38934;52.690;6.184;2022-08-21T15:49:05;4.55;;;1.52;;
53052;SDS011;38934;52.690;6.184;2022-08-21T15:51:31;2.88;;;1.33;;
53052;SDS011;38934;52.690;6.184;2022-08-21T15:53:57;4.93;;;1.60;;
53052;SDS011;38934;52.690;6.184;2022-08-21T15:56:24;3.95;;;1.98;;